createdAt,value
2022-09-15T00:00:18.292Z,100364.34
2022-09-15T00:02:48.802Z,100366.74
2022-09-15T00:05:19.221Z,100365.04
2022-09-15T00:07:49.645Z,100372.54
2022-09-15T00:10:19.993Z,100373.46
2022-09-15T00:12:50.465Z,100366.51
2022-09-15T00:15:20.856Z,100362.92
2022-09-15T00:17:51.334Z,100368.44
2022-09-15T00:20:21.719Z,100369.56
2022-09-15T00:22:52.165Z,100371.41
2022-09-15T00:25:22.582Z,100367.23
2022-09-15T00:27:53.032Z,100368.46
2022-09-15T00:30:23.432Z,100370.75
2022-09-15T00:32:53.899Z,100368.68
2022-09-15T00:35:24.277Z,100372.21
2022-09-15T00:37:54.767Z,100374.75
2022-09-15T00:40:25.292Z,100375.25
2022-09-15T00:42:55.635Z,100370.92
2022-09-15T00:45:26.037Z,100369.73
2022-09-15T00:47:56.505Z,100371.52
2022-09-15T00:50:26.819Z,100372.99
2022-09-15T00:52:57.259Z,100372.67
2022-09-15T00:55:27.647Z,100374.32
2022-09-15T00:57:58.098Z,100373.12
2022-09-15T01:00:28.501Z,100374.87
2022-09-15T01:02:59.073Z,100373.95
2022-09-15T01:05:29.477Z,100373.37
2022-09-15T01:07:59.893Z,100374.76
2022-09-15T01:10:30.202Z,100378.14
2022-09-15T01:13:00.751Z,100383.43
2022-09-15T01:15:31.043Z,100383.79
2022-09-15T01:18:01.502Z,100382.46
2022-09-15T01:20:31.865Z,100384.16
2022-09-15T01:23:02.299Z,100385.75
2022-09-15T01:25:32.691Z,100385.47
2022-09-15T01:28:03.214Z,100389.25
2022-09-15T01:30:33.587Z,100383.30
2022-09-15T01:33:03.985Z,100378.79
2022-09-15T01:35:34.310Z,100376.09
2022-09-15T01:38:04.731Z,100372.57
2022-09-15T01:40:35.137Z,100372.64
2022-09-15T01:43:05.541Z,100373.03
2022-09-15T01:45:35.981Z,100367.47
2022-09-15T01:48:06.362Z,100366.99
2022-09-15T01:50:36.724Z,100368.43
2022-09-15T01:53:07.142Z,100371.18
2022-09-15T01:55:37.547Z,100377.48
2022-09-15T01:58:07.971Z,100381.64
2022-09-15T02:00:38.376Z,100381.00
2022-09-15T02:03:08.844Z,100385.11
2022-09-15T02:05:39.220Z,100386.10
2022-09-15T02:08:09.649Z,100386.74
2022-09-15T02:10:40.058Z,100388.92
2022-09-15T02:13:10.503Z,100386.60
2022-09-15T02:15:41.017Z,100390.30
2022-09-15T02:18:11.368Z,100389.18
2022-09-15T02:20:41.759Z,100394.26
2022-09-15T02:23:12.289Z,100394.57
2022-09-15T02:25:42.730Z,100390.94
2022-09-15T02:28:13.060Z,100389.77
2022-09-15T02:30:43.165Z,100391.85
2022-09-15T02:33:13.724Z,100390.34
2022-09-15T02:35:44.043Z,100392.15
2022-09-15T02:38:14.454Z,100393.73
2022-09-15T02:40:44.641Z,100403.02
2022-09-15T02:43:15.084Z,100406.27
2022-09-15T02:45:45.557Z,100406.41
2022-09-15T02:48:16.072Z,100399.40
2022-09-15T02:50:46.413Z,100396.37
2022-09-15T02:53:16.828Z,100392.49
2022-09-15T02:55:47.021Z,100391.32
2022-09-15T02:58:17.442Z,100386.53
2022-09-15T03:00:47.943Z,100380.19
2022-09-15T03:03:18.339Z,100375.51
2022-09-15T03:05:48.772Z,100376.74
2022-09-15T03:08:19.173Z,100378.57
2022-09-15T03:10:49.614Z,100374.75
2022-09-15T03:13:20.004Z,100375.11
2022-09-15T03:15:50.481Z,100374.09
2022-09-15T03:18:20.827Z,100369.22
2022-09-15T03:20:51.273Z,100373.31
2022-09-15T03:23:21.662Z,100376.48
2022-09-15T03:25:52.076Z,100378.60
2022-09-15T03:28:22.457Z,100382.27
2022-09-15T03:30:52.908Z,100384.48
2022-09-15T03:33:23.327Z,100387.96
2022-09-15T03:35:53.706Z,100392.43
2022-09-15T03:38:23.763Z,100390.22
2022-09-15T03:40:54.189Z,100389.72
2022-09-15T03:43:24.568Z,100388.73
2022-09-15T03:45:55.131Z,100389.43
2022-09-15T03:48:25.498Z,100389.94
2022-09-15T03:50:55.918Z,100389.75
2022-09-15T03:53:26.252Z,100389.21
2022-09-15T03:55:56.761Z,100392.71
2022-09-15T03:58:30.637Z,100398.05
2022-09-15T04:00:57.870Z,100401.87
2022-09-15T04:03:28.162Z,100399.30
2022-09-15T04:05:58.916Z,100399.54
2022-09-15T04:08:29.049Z,100402.97
2022-09-15T04:10:59.498Z,100398.52
2022-09-15T04:13:29.905Z,100396.45
2022-09-15T04:16:00.451Z,100400.49
2022-09-15T04:18:30.408Z,100402.64
2022-09-15T04:21:00.840Z,100407.75
2022-09-15T04:23:31.255Z,100406.06
2022-09-15T04:26:01.810Z,100405.06
2022-09-15T04:28:32.129Z,100401.12
2022-09-15T04:31:02.696Z,100401.17
2022-09-15T04:33:32.975Z,100404.66
2022-09-15T04:36:03.417Z,100400.78
2022-09-15T04:38:33.539Z,100400.15
2022-09-15T04:41:03.988Z,100402.05
2022-09-15T04:43:34.401Z,100402.30
2022-09-15T04:46:04.841Z,100404.97
2022-09-15T04:48:35.225Z,100408.07
2022-09-15T04:51:05.657Z,100402.68
2022-09-15T04:53:36.053Z,100398.85
2022-09-15T04:56:06.477Z,100401.95
2022-09-15T04:58:36.856Z,100402.32
2022-09-15T05:01:07.376Z,100403.44
2022-09-15T05:03:37.669Z,100404.39
2022-09-15T05:06:08.097Z,100398.28
2022-09-15T05:08:38.480Z,100394.11
2022-09-15T05:11:08.903Z,100393.22
2022-09-15T05:13:39.276Z,100393.91
2022-09-15T05:16:09.786Z,100396.20
2022-09-15T05:18:40.095Z,100395.13
2022-09-15T05:21:10.507Z,100392.98
2022-09-15T05:23:40.946Z,100398.01
2022-09-15T05:26:11.269Z,100396.74
2022-09-15T05:28:41.639Z,100396.86
2022-09-15T05:31:12.112Z,100402.15
2022-09-15T05:33:42.375Z,100405.58
2022-09-15T05:36:12.793Z,100406.50
2022-09-15T05:38:43.132Z,100403.30
2022-09-15T05:41:13.561Z,100399.16
2022-09-15T05:43:43.930Z,100394.99
2022-09-15T05:46:14.399Z,100398.13
2022-09-15T05:48:44.710Z,100395.76
2022-09-15T05:51:15.171Z,100396.66
2022-09-15T05:53:45.481Z,100400.68
2022-09-15T05:56:15.609Z,100404.01
2022-09-15T05:58:45.973Z,100405.27
2022-09-15T06:01:16.421Z,100408.42
2022-09-15T06:03:46.772Z,100409.74
2022-09-15T06:06:17.181Z,100413.66
2022-09-15T06:08:48.377Z,100415.49
2022-09-15T06:11:18.085Z,100413.04
2022-09-15T06:13:48.368Z,100414.72
2022-09-15T06:16:18.900Z,100414.72
2022-09-15T06:18:49.181Z,100412.75
2022-09-15T06:21:19.595Z,100404.88
2022-09-15T06:23:50.819Z,100405.85
2022-09-15T06:26:20.363Z,100412.07
2022-09-15T06:28:50.708Z,100414.29
2022-09-15T06:31:21.230Z,100416.86
2022-09-15T06:33:51.675Z,100418.31
2022-09-15T06:36:21.899Z,100419.85
2022-09-15T06:38:52.470Z,100417.58
2022-09-15T06:41:22.685Z,100422.40
2022-09-15T06:43:53.378Z,100423.19
2022-09-15T06:46:23.619Z,100422.19
2022-09-15T06:48:53.825Z,100426.35
2022-09-15T06:51:24.311Z,100422.72
2022-09-15T06:53:54.602Z,100420.84
2022-09-15T06:56:25.011Z,100416.04
2022-09-15T06:58:55.374Z,100414.97
2022-09-15T07:01:25.794Z,100418.32
2022-09-15T07:03:56.133Z,100419.20
2022-09-15T07:06:26.529Z,100420.03
2022-09-15T07:08:56.888Z,100422.17
2022-09-15T07:11:27.291Z,100428.72
2022-09-15T07:13:57.658Z,100428.71
2022-09-15T07:16:28.203Z,100432.68
2022-09-15T07:18:58.394Z,100437.34
2022-09-15T07:21:28.795Z,100437.33
2022-09-15T07:24:02.517Z,100436.65
2022-09-15T07:26:29.517Z,100441.58
2022-09-15T07:28:59.856Z,100438.89
2022-09-15T07:31:30.340Z,100438.64
2022-09-15T07:34:00.603Z,100441.18
2022-09-15T07:36:31.073Z,100444.78
2022-09-15T07:39:01.393Z,100447.67
2022-09-15T07:41:31.736Z,100454.54
2022-09-15T07:44:02.099Z,100449.71
2022-09-15T07:46:32.535Z,100455.90
2022-09-15T07:49:02.836Z,100456.18
2022-09-15T07:51:33.219Z,100456.75
2022-09-15T07:54:03.545Z,100459.36
2022-09-15T07:56:33.940Z,100460.91
2022-09-15T07:59:04.288Z,100461.03
2022-09-15T08:01:34.766Z,100460.44
2022-09-15T08:04:05.128Z,100463.62
2022-09-15T08:06:35.405Z,100461.52
2022-09-15T08:09:05.760Z,100465.02
2022-09-15T08:11:36.175Z,100464.52
2022-09-15T08:14:06.493Z,100473.38
2022-09-15T08:16:36.920Z,100469.84
2022-09-15T08:19:07.211Z,100478.40
2022-09-15T08:21:37.571Z,100477.71
2022-09-15T08:24:07.897Z,100481.06
2022-09-15T08:26:38.340Z,100478.14
2022-09-15T08:29:08.599Z,100480.13
2022-09-15T08:31:39.076Z,100482.71
2022-09-15T08:34:09.297Z,100478.41
2022-09-15T08:36:39.734Z,100475.21
2022-09-15T08:39:09.984Z,100475.19
2022-09-15T08:41:40.349Z,100484.71
2022-09-15T08:44:10.667Z,100486.21
2022-09-15T08:46:41.269Z,100493.24
2022-09-15T08:49:11.356Z,100503.85
2022-09-15T08:51:41.771Z,100506.31
2022-09-15T08:54:12.045Z,100502.08
2022-09-15T08:56:42.407Z,100504.56
2022-09-15T08:59:12.740Z,100501.57
2022-09-15T09:01:43.178Z,100505.43
2022-09-15T09:04:17.539Z,100511.21
2022-09-15T09:06:43.862Z,100506.45
2022-09-15T09:09:14.103Z,100502.63
2022-09-15T09:11:44.505Z,100509.24
2022-09-15T09:14:14.806Z,100515.30
2022-09-15T09:16:45.149Z,100516.14
2022-09-15T09:19:15.437Z,100517.27
2022-09-15T09:21:45.781Z,100511.10
2022-09-15T09:24:16.098Z,100506.02
2022-09-15T09:26:46.476Z,100506.50
2022-09-15T09:29:16.738Z,100509.04
2022-09-15T09:31:47.109Z,100505.58
2022-09-15T09:34:17.399Z,100507.57
2022-09-15T09:36:47.738Z,100512.83
2022-09-15T09:39:20.109Z,100510.86
2022-09-15T09:41:48.387Z,100507.92
2022-09-15T09:44:18.693Z,100502.71
2022-09-15T09:46:49.055Z,100496.02
2022-09-15T09:49:19.322Z,100498.45
2022-09-15T09:51:49.669Z,100502.59
2022-09-15T09:54:19.970Z,100498.67
2022-09-15T09:56:50.310Z,100502.05
2022-09-15T09:59:20.601Z,100498.44
2022-09-15T10:01:51.024Z,100499.65
2022-09-15T10:04:21.325Z,100504.85
2022-09-15T10:06:51.554Z,100494.51
2022-09-15T10:09:21.835Z,100487.00
2022-09-15T10:11:52.179Z,100490.88
2022-09-15T10:14:22.471Z,100497.37
2022-09-15T10:16:52.882Z,100496.06
2022-09-15T10:19:23.064Z,100496.02
2022-09-15T10:21:53.405Z,100491.98
2022-09-15T10:24:23.683Z,100489.06
2022-09-15T10:26:53.997Z,100487.67
2022-09-15T10:29:24.274Z,100490.79
2022-09-15T10:31:54.659Z,100492.97
2022-09-15T10:34:24.865Z,100499.85
2022-09-15T10:36:55.171Z,100502.59
2022-09-15T10:39:25.467Z,100491.83
2022-09-15T10:41:55.800Z,100495.18
2022-09-15T10:44:26.196Z,100496.13
2022-09-15T10:46:56.444Z,100493.03
2022-09-15T10:49:26.704Z,100491.61
2022-09-15T10:51:57.039Z,100492.53
2022-09-15T10:54:27.338Z,100494.15
2022-09-15T10:56:57.659Z,100489.82
2022-09-15T10:59:27.936Z,100490.95
2022-09-15T11:01:58.382Z,100483.31
2022-09-15T11:04:28.550Z,100485.19
2022-09-15T11:06:58.876Z,100488.32
2022-09-15T11:09:29.144Z,100487.12
2022-09-15T11:11:59.567Z,100492.13
2022-09-15T11:14:29.750Z,100487.93
2022-09-15T11:17:00.117Z,100492.39
2022-09-15T11:19:30.489Z,100495.75
2022-09-15T11:22:00.753Z,100500.88
2022-09-15T11:24:31.001Z,100501.09
2022-09-15T11:27:01.348Z,100494.62
2022-09-15T11:29:31.638Z,100498.93
2022-09-15T11:34:32.269Z,100501.09
2022-09-15T11:37:02.531Z,100511.50
2022-09-15T11:39:32.807Z,100500.14
2022-09-15T11:42:03.133Z,100497.25
2022-09-15T11:44:33.399Z,100499.38
2022-09-15T11:47:04.263Z,100504.16
2022-09-15T11:49:34.015Z,100502.79
2022-09-15T11:52:04.335Z,100510.95
2022-09-15T11:54:34.668Z,100510.61
2022-09-15T11:57:04.943Z,100511.05
2022-09-15T11:59:35.220Z,100508.05
2022-09-15T12:02:05.633Z,100502.97
2022-09-15T12:04:35.836Z,100499.67
2022-09-15T12:07:08.786Z,100497.53
2022-09-15T12:09:36.487Z,100497.94
2022-09-15T12:12:06.808Z,100504.76
2022-09-15T12:14:37.091Z,100513.52
2022-09-15T12:17:07.455Z,100507.35
2022-09-15T12:19:37.738Z,100509.86
2022-09-15T12:22:08.068Z,100506.38
2022-09-15T12:24:38.358Z,100511.99
2022-09-15T12:27:08.713Z,100504.59
2022-09-15T12:29:41.793Z,100515.23
2022-09-15T12:32:09.367Z,100516.97
2022-09-15T12:34:39.664Z,100515.35
2022-09-15T12:37:10.015Z,100516.46
2022-09-15T12:39:40.420Z,100517.42
2022-09-15T12:42:10.682Z,100516.70
2022-09-15T12:44:40.981Z,100522.32
2022-09-15T12:47:11.341Z,100520.71
2022-09-15T12:49:41.638Z,100518.47
2022-09-15T12:52:11.976Z,100522.20
2022-09-15T12:54:42.281Z,100524.44
2022-09-15T12:57:12.628Z,100523.86
2022-09-15T12:59:43.011Z,100532.21
2022-09-15T13:02:13.498Z,100534.93
2022-09-15T13:04:43.598Z,100532.23
2022-09-15T13:07:13.946Z,100532.72
2022-09-15T13:09:44.254Z,100532.55
2022-09-15T13:12:14.607Z,100533.54
2022-09-15T13:14:44.908Z,100529.72
2022-09-15T13:17:15.285Z,100532.93
2022-09-15T13:19:45.572Z,100534.15
2022-09-15T13:22:15.915Z,100532.48
2022-09-15T13:24:46.536Z,100530.05
2022-09-15T13:27:16.552Z,100529.89
2022-09-15T13:29:46.865Z,100530.68
2022-09-15T13:32:17.206Z,100527.66
2022-09-15T13:35:09.736Z,100532.23
2022-09-15T13:39:48.159Z,100529.84
2022-09-15T13:42:18.506Z,100529.00
2022-09-15T13:44:48.696Z,100520.56
2022-09-15T13:47:19.134Z,100523.01
2022-09-15T13:49:49.321Z,100508.94
2022-09-15T13:52:19.638Z,100510.16
2022-09-15T13:54:49.942Z,100503.36
2022-09-15T13:58:55.009Z,100503.93
2022-09-15T13:59:50.605Z,100495.47
2022-09-15T14:02:21.241Z,100493.65
2022-09-15T14:04:51.226Z,100489.44
2022-09-15T14:07:21.576Z,100490.61
2022-09-15T14:09:51.886Z,100494.90
2022-09-15T14:12:22.201Z,100499.55
2022-09-15T14:14:52.493Z,100488.74
2022-09-15T14:17:22.841Z,100497.15
2022-09-15T14:19:53.223Z,100481.13
2022-09-15T14:22:23.475Z,100486.05
2022-09-15T14:24:53.865Z,100492.49
2022-09-15T14:27:24.116Z,100493.33
2022-09-15T14:29:54.495Z,100490.18
2022-09-15T14:32:24.860Z,100498.23
2022-09-15T14:34:55.073Z,100499.58
2022-09-15T14:37:25.422Z,100517.16
2022-09-15T14:39:55.813Z,100530.39
2022-09-15T14:42:26.126Z,100544.73
2022-09-15T14:47:26.859Z,100561.53
2022-09-15T14:49:57.169Z,100562.38
2022-09-15T14:52:27.544Z,100564.70
2022-09-15T14:54:57.871Z,100565.42
2022-09-15T14:57:31.020Z,100563.46
2022-09-15T14:59:58.496Z,100563.92
2022-09-15T15:02:28.973Z,100561.15
2022-09-15T15:04:59.266Z,100560.85
2022-09-15T15:07:29.559Z,100562.76
2022-09-15T15:09:59.890Z,100555.72
2022-09-15T15:12:30.265Z,100554.60
2022-09-15T15:15:00.669Z,100552.43
2022-09-15T15:17:31.016Z,100549.96
2022-09-15T15:20:01.427Z,100547.37
2022-09-15T15:22:31.689Z,100548.51
2022-09-15T15:25:02.024Z,100553.63
2022-09-15T15:27:32.404Z,100549.30
2022-09-15T15:30:02.729Z,100544.09
2022-09-15T15:32:33.124Z,100539.66
2022-09-15T15:35:03.427Z,100545.51
2022-09-15T15:37:33.789Z,100554.68
2022-09-15T15:40:04.175Z,100562.72
2022-09-15T15:42:34.484Z,100564.82
2022-09-15T15:45:04.849Z,100573.79
2022-09-15T15:47:35.217Z,100574.39
2022-09-15T15:50:13.936Z,100578.33
2022-09-15T15:52:35.931Z,100576.84
2022-09-15T15:55:06.361Z,100572.21
2022-09-15T15:57:36.669Z,100572.81
2022-09-15T16:00:06.993Z,100569.61
2022-09-15T16:02:37.408Z,100568.67
2022-09-15T16:05:07.728Z,100565.38
2022-09-15T16:07:38.117Z,100564.82
2022-09-15T16:10:08.520Z,100564.69
2022-09-15T16:12:38.835Z,100567.08
2022-09-15T16:15:09.279Z,100564.41
2022-09-15T16:17:44.344Z,100567.30
2022-09-15T16:20:09.928Z,100571.79
2022-09-15T16:22:40.248Z,100570.76
2022-09-15T16:25:10.574Z,100571.86
2022-09-15T16:27:40.984Z,100569.49
2022-09-15T16:30:11.305Z,100569.16
2022-09-15T16:32:41.697Z,100570.82
2022-09-15T16:35:12.079Z,100572.57
2022-09-15T16:37:42.390Z,100573.77
2022-09-15T16:40:12.894Z,100572.01
2022-09-15T16:42:43.156Z,100573.67
2022-09-15T16:45:13.438Z,100581.05
2022-09-15T16:47:43.866Z,100577.99
2022-09-15T16:50:14.340Z,100579.25
2022-09-15T16:52:44.625Z,100581.50
2022-09-15T16:55:15.017Z,100583.06
2022-09-15T16:57:45.397Z,100587.82
2022-09-15T17:00:15.762Z,100602.18
2022-09-15T17:02:46.172Z,100607.83
2022-09-15T17:05:16.581Z,100603.59
2022-09-15T17:07:46.938Z,100608.84
2022-09-15T17:10:17.332Z,100608.41
2022-09-15T17:12:47.741Z,100601.75
2022-09-15T17:15:18.130Z,100602.12
2022-09-15T17:17:48.557Z,100601.11
2022-09-15T17:20:18.916Z,100591.30
2022-09-15T17:22:49.346Z,100592.66
2022-09-15T17:25:19.746Z,100595.72
2022-09-15T17:27:50.166Z,100597.18
2022-09-15T17:30:20.543Z,100595.34
2022-09-15T17:32:50.988Z,100598.29
2022-09-15T17:35:21.492Z,100601.83
2022-09-15T17:37:51.769Z,100601.63
2022-09-15T17:40:22.308Z,100602.15
2022-09-15T17:42:52.572Z,100601.68
2022-09-15T17:45:22.954Z,100603.37
2022-09-15T17:47:53.403Z,100602.65
2022-09-15T17:50:23.874Z,100601.83
2022-09-15T17:52:54.201Z,100600.78
2022-09-15T17:55:24.578Z,100599.94
2022-09-15T17:57:55.017Z,100597.29
2022-09-15T18:00:25.395Z,100599.18
2022-09-15T18:02:55.925Z,100592.84
2022-09-15T18:05:26.330Z,100592.44
2022-09-15T18:07:56.650Z,100590.76
2022-09-15T18:10:27.049Z,100596.42
2022-09-15T18:12:57.482Z,100597.60
2022-09-15T18:15:27.916Z,100598.97
2022-09-15T18:17:58.325Z,100600.78
2022-09-15T18:20:28.795Z,100598.88
2022-09-15T18:22:59.133Z,100601.71
2022-09-15T18:25:29.511Z,100602.96
2022-09-15T18:27:59.965Z,100602.61
2022-09-15T18:30:30.403Z,100600.67
2022-09-15T18:33:00.800Z,100601.45
2022-09-15T18:35:31.174Z,100600.97
2022-09-15T18:38:01.632Z,100604.07
2022-09-15T18:40:32.112Z,100606.62
2022-09-15T18:43:02.467Z,100611.51
2022-09-15T18:45:32.953Z,100612.52
2022-09-15T18:48:03.304Z,100616.46
2022-09-15T18:50:33.688Z,100613.46
2022-09-15T18:53:04.115Z,100617.98
2022-09-15T18:55:34.567Z,100618.45
2022-09-15T18:58:04.943Z,100622.06
2022-09-15T19:00:35.418Z,100627.24
2022-09-15T19:03:05.794Z,100627.93
2022-09-15T19:05:36.282Z,100631.53
2022-09-15T19:08:06.606Z,100633.91
2022-09-15T19:10:37.023Z,100635.84
2022-09-15T19:13:07.476Z,100639.81
2022-09-15T19:15:37.896Z,100642.87
2022-09-15T19:18:08.359Z,100644.44
2022-09-15T19:20:38.832Z,100645.23
2022-09-15T19:23:09.248Z,100649.23
2022-09-15T19:25:39.628Z,100649.44
2022-09-15T19:28:10.078Z,100648.61
2022-09-15T19:30:40.511Z,100650.38
2022-09-15T19:33:10.967Z,100651.00
2022-09-15T19:35:41.346Z,100650.18
2022-09-15T19:38:11.805Z,100646.18
2022-09-15T19:40:42.247Z,100646.09
2022-09-15T19:43:12.682Z,100645.10
2022-09-15T19:45:43.269Z,100645.64
2022-09-15T19:48:13.603Z,100648.64
2022-09-15T19:50:43.979Z,100652.89
2022-09-15T19:53:14.429Z,100653.84
2022-09-15T19:55:44.912Z,100654.95
2022-09-15T19:58:15.312Z,100653.66
2022-09-15T20:00:45.793Z,100652.97
2022-09-15T20:03:16.245Z,100654.59
2022-09-15T20:05:46.737Z,100651.50
2022-09-15T20:08:17.126Z,100655.10
2022-09-15T20:10:47.603Z,100656.63
2022-09-15T20:13:18.126Z,100657.59
2022-09-15T20:15:48.550Z,100654.46
2022-09-15T20:18:18.931Z,100654.69
2022-09-15T20:20:49.411Z,100651.15
2022-09-15T20:23:19.836Z,100649.71
2022-09-15T20:25:50.333Z,100650.11
2022-09-15T20:28:20.741Z,100651.80
2022-09-15T20:30:51.374Z,100653.20
2022-09-15T20:33:21.673Z,100650.38
2022-09-15T20:35:52.130Z,100651.03
2022-09-15T20:38:22.557Z,100648.10
2022-09-15T20:40:53.115Z,100649.21
2022-09-15T20:43:23.457Z,100649.26
2022-09-15T20:45:53.976Z,100646.83
2022-09-15T20:48:24.338Z,100644.61
2022-09-15T20:50:54.810Z,100647.89
2022-09-15T20:53:25.220Z,100646.23
2022-09-15T20:55:55.695Z,100647.46
2022-09-15T20:58:26.122Z,100652.89
2022-09-15T21:00:56.639Z,100648.57
2022-09-15T21:03:27.029Z,100653.21
2022-09-15T21:05:57.511Z,100653.77
2022-09-15T21:08:27.954Z,100655.57
2022-09-15T21:10:58.431Z,100656.80
2022-09-15T21:13:28.866Z,100657.08
2022-09-15T21:15:59.368Z,100652.90
2022-09-15T21:18:29.801Z,100652.02
2022-09-15T21:21:00.357Z,100652.16
2022-09-15T21:23:30.723Z,100657.30
2022-09-15T21:26:01.906Z,100657.24
2022-09-15T21:28:31.642Z,100654.73
2022-09-15T21:31:02.259Z,100652.95
2022-09-15T21:33:32.527Z,100655.53
2022-09-15T21:36:02.996Z,100656.81
2022-09-15T21:38:33.438Z,100657.15
2022-09-15T21:41:03.898Z,100665.21
2022-09-15T21:43:34.325Z,100670.03
2022-09-15T21:46:04.946Z,100676.38
2022-09-15T21:48:35.228Z,100673.05
2022-09-15T21:51:05.788Z,100679.87
2022-09-15T21:53:36.126Z,100680.95
2022-09-15T21:56:06.654Z,100679.18
2022-09-15T21:58:42.385Z,100679.34
2022-09-15T22:01:07.613Z,100676.77
2022-09-15T22:03:37.974Z,100677.78
2022-09-15T22:06:08.562Z,100672.61
2022-09-15T22:08:38.884Z,100676.84
2022-09-15T22:11:09.370Z,100683.89
2022-09-15T22:13:39.788Z,100677.08
2022-09-15T22:16:10.328Z,100678.61
2022-09-15T22:18:40.700Z,100681.64
2022-09-15T22:21:11.161Z,100686.73
2022-09-15T22:23:41.572Z,100687.77
2022-09-15T22:26:12.085Z,100684.31
2022-09-15T22:28:42.461Z,100686.89
2022-09-15T22:31:12.994Z,100685.27
2022-09-15T22:33:43.348Z,100686.16
2022-09-15T22:36:13.901Z,100686.33
2022-09-15T22:38:44.379Z,100685.62
2022-09-15T22:41:14.672Z,100684.67
2022-09-15T22:43:45.121Z,100688.70
2022-09-15T22:46:15.668Z,100683.94
2022-09-15T22:48:45.993Z,100681.33
2022-09-15T22:51:16.477Z,100679.09
2022-09-15T22:53:46.934Z,100674.22
2022-09-15T22:56:17.352Z,100669.73
2022-09-15T22:58:47.780Z,100673.52
2022-09-15T23:01:18.323Z,100672.10
2022-09-15T23:03:48.640Z,100672.21
2022-09-15T23:06:19.112Z,100672.45
2022-09-15T23:08:49.535Z,100675.98
2022-09-15T23:11:20.074Z,100674.85
2022-09-15T23:13:50.402Z,100669.80
2022-09-15T23:16:21.051Z,100664.02
2022-09-15T23:18:51.307Z,100664.27
2022-09-15T23:21:21.884Z,100663.21
2022-09-15T23:23:52.332Z,100663.04
2022-09-15T23:26:22.847Z,100660.79
2022-09-15T23:28:53.220Z,100659.07
2022-09-15T23:31:23.799Z,100659.94
2022-09-15T23:33:54.177Z,100656.17
2022-09-15T23:36:24.673Z,100658.10
2022-09-15T23:38:55.219Z,100655.17
2022-09-15T23:41:25.628Z,100653.85
2022-09-15T23:43:56.124Z,100651.99
2022-09-15T23:46:26.566Z,100653.23
2022-09-15T23:48:56.939Z,100655.25
2022-09-15T23:51:27.425Z,100656.29
2022-09-15T23:53:57.866Z,100654.91
2022-09-15T23:56:28.472Z,100655.83
2022-09-15T23:58:58.844Z,100655.47
